sensor_id;sensor_type;location;lat;lon;timestamp;pressure;altitude;pressure_sealevel;temperature;humidity
70248;BME280;57641;51.416;5.506;2023-04-20T00:02:12;102300.09;;;14.33;27.51
70248;BME280;57641;51.416;5.506;2023-04-20T00:04:40;102294.59;;;14.35;27.44
70248;BME280;57641;51.416;5.506;2023-04-20T00:07:05;102298.69;;;14.29;27.50
70248;BME280;57641;51.416;5.506;2023-04-20T00:09:31;102293.88;;;14.33;27.66
70248;BME280;57641;51.416;5.506;2023-04-20T00:11:59;102289.78;;;14.29;27.34
70248;BME280;57641;51.416;5.506;2023-04-20T00:14:26;102276.81;;;14.24;27.20
70248;BME280;57641;51.416;5.506;2023-04-20T00:16:55;102287.28;;;14.27;27.10
70248;BME280;57641;51.416;5.506;2023-04-20T00:19:23;102290.09;;;14.16;27.15
70248;BME280;57641;51.416;5.506;2023-04-20T00:21:50;102284.00;;;14.24;27.06
70248;BME280;57641;51.416;5.506;2023-04-20T00:24:17;102276.81;;;14.15;26.97
70248;BME280;57641;51.416;5.506;2023-04-20T00:26:43;102268.47;;;14.18;27.23
70248;BME280;57641;51.416;5.506;2023-04-20T00:29:08;102266.09;;;14.05;26.90
70248;BME280;57641;51.416;5.506;2023-04-20T00:31:34;102264.41;;;14.04;26.98
70248;BME280;57641;51.416;5.506;2023-04-20T00:34:00;102260.56;;;13.97;26.92
70248;BME280;57641;51.416;5.506;2023-04-20T00:36:26;102256.91;;;14.08;27.14
70248;BME280;57641;51.416;5.506;2023-04-20T00:38:51;102250.72;;;13.98;27.29
70248;BME280;57641;51.416;5.506;2023-04-20T00:41:17;102244.34;;;13.99;27.04
70248;BME280;57641;51.416;5.506;2023-04-20T00:43:54;102246.50;;;13.95;27.52
70248;BME280;57641;51.416;5.506;2023-04-20T00:46:20;102246.31;;;13.96;27.50
70248;BME280;57641;51.416;5.506;2023-04-20T00:48:49;102236.75;;;13.94;27.27
70248;BME280;57641;51.416;5.506;2023-04-20T00:51:19;102234.31;;;13.91;27.50
70248;BME280;57641;51.416;5.506;2023-04-20T00:53:45;102239.97;;;13.88;27.37
70248;BME280;57641;51.416;5.506;2023-04-20T00:56:15;102228.13;;;13.81;27.84
70248;BME280;57641;51.416;5.506;2023-04-20T00:58:45;102219.66;;;13.85;28.03
70248;BME280;57641;51.416;5.506;2023-04-20T01:01:15;102211.78;;;13.84;27.51
70248;BME280;57641;51.416;5.506;2023-04-20T01:03:44;102211.63;;;13.76;27.52
70248;BME280;57641;51.416;5.506;2023-04-20T01:06:13;102213.31;;;13.77;27.50
70248;BME280;57641;51.416;5.506;2023-04-20T01:08:47;102204.13;;;13.70;27.97
70248;BME280;57641;51.416;5.506;2023-04-20T01:11:13;102212.34;;;13.68;27.77
70248;BME280;57641;51.416;5.506;2023-04-20T01:13:39;102194.56;;;13.58;27.66
70248;BME280;57641;51.416;5.506;2023-04-20T01:16:05;102191.16;;;13.56;27.68
70248;BME280;57641;51.416;5.506;2023-04-20T01:18:43;102191.56;;;13.51;28.28
70248;BME280;57641;51.416;5.506;2023-04-20T01:21:13;102183.66;;;13.49;27.73
70248;BME280;57641;51.416;5.506;2023-04-20T01:23:39;102185.50;;;13.49;27.98
70248;BME280;57641;51.416;5.506;2023-04-20T01:26:06;102179.56;;;13.26;28.25
70248;BME280;57641;51.416;5.506;2023-04-20T01:28:32;102188.81;;;13.13;28.38
70248;BME280;57641;51.416;5.506;2023-04-20T01:30:58;102185.19;;;13.23;28.65
70248;BME280;57641;51.416;5.506;2023-04-20T01:33:23;102176.88;;;13.26;28.72
70248;BME280;57641;51.416;5.506;2023-04-20T01:35:52;102164.91;;;13.30;28.64
70248;BME280;57641;51.416;5.506;2023-04-20T01:38:21;102165.47;;;13.24;29.12
70248;BME280;57641;51.416;5.506;2023-04-20T01:40:48;102165.88;;;13.20;29.09
70248;BME280;57641;51.416;5.506;2023-04-20T01:43:23;102165.88;;;13.29;28.46
70248;BME280;57641;51.416;5.506;2023-04-20T01:45:49;102161.50;;;13.19;29.20
70248;BME280;57641;51.416;5.506;2023-04-20T01:48:15;102151.50;;;13.30;28.68
70248;BME280;57641;51.416;5.506;2023-04-20T01:50:41;102152.22;;;13.32;29.09
70248;BME280;57641;51.416;5.506;2023-04-20T01:53:09;102148.53;;;13.24;29.42
70248;BME280;57641;51.416;5.506;2023-04-20T01:55:38;102139.09;;;13.20;29.51
70248;BME280;57641;51.416;5.506;2023-04-20T01:58:03;102132.16;;;13.17;30.00
70248;BME280;57641;51.416;5.506;2023-04-20T02:00:38;102133.44;;;13.23;29.54
70248;BME280;57641;51.416;5.506;2023-04-20T02:03:03;102130.75;;;13.13;29.54
70248;BME280;57641;51.416;5.506;2023-04-20T02:05:32;102131.56;;;13.04;29.90
70248;BME280;57641;51.416;5.506;2023-04-20T02:08:01;102128.22;;;13.11;29.99
70248;BME280;57641;51.416;5.506;2023-04-20T02:10:26;102126.81;;;13.17;30.15
70248;BME280;57641;51.416;5.506;2023-04-20T02:12:52;102122.72;;;13.13;29.51
70248;BME280;57641;51.416;5.506;2023-04-20T02:15:18;102113.13;;;13.10;29.96
70248;BME280;57641;51.416;5.506;2023-04-20T02:17:44;102109.28;;;13.03;29.58
70248;BME280;57641;51.416;5.506;2023-04-20T02:20:12;102108.03;;;12.98;29.44
70248;BME280;57641;51.416;5.506;2023-04-20T02:22:39;102110.94;;;12.85;30.14
70248;BME280;57641;51.416;5.506;2023-04-20T02:25:07;102109.72;;;12.99;30.15
70248;BME280;57641;51.416;5.506;2023-04-20T02:27:34;102098.72;;;13.02;29.98
70248;BME280;57641;51.416;5.506;2023-04-20T02:30:00;102100.59;;;13.11;29.75
70248;BME280;57641;51.416;5.506;2023-04-20T02:32:26;102103.66;;;13.06;29.44
70248;BME280;57641;51.416;5.506;2023-04-20T02:34:59;102096.75;;;12.94;30.02
70248;BME280;57641;51.416;5.506;2023-04-20T02:37:25;102100.97;;;12.97;30.57
70248;BME280;57641;51.416;5.506;2023-04-20T02:39:51;102101.81;;;12.88;29.82
70248;BME280;57641;51.416;5.506;2023-04-20T02:42:17;102100.53;;;12.82;30.58
70248;BME280;57641;51.416;5.506;2023-04-20T02:44:51;102097.44;;;12.87;30.46
70248;BME280;57641;51.416;5.506;2023-04-20T02:47:17;102091.94;;;12.88;30.24
70248;BME280;57641;51.416;5.506;2023-04-20T02:49:43;102085.56;;;12.80;30.31
70248;BME280;57641;51.416;5.506;2023-04-20T02:52:10;102088.25;;;12.80;30.68
70248;BME280;57641;51.416;5.506;2023-04-20T02:54:35;102078.69;;;12.77;30.79
70248;BME280;57641;51.416;5.506;2023-04-20T02:57:01;102084.56;;;12.71;30.81
70248;BME280;57641;51.416;5.506;2023-04-20T02:59:28;102075.81;;;12.59;31.05
70248;BME280;57641;51.416;5.506;2023-04-20T03:01:53;102085.13;;;12.75;31.03
70248;BME280;57641;51.416;5.506;2023-04-20T03:04:19;102083.41;;;12.64;31.45
70248;BME280;57641;51.416;5.506;2023-04-20T03:06:51;102077.63;;;12.59;31.58
70248;BME280;57641;51.416;5.506;2023-04-20T03:09:18;102062.59;;;12.58;32.09
70248;BME280;57641;51.416;5.506;2023-04-20T03:11:44;102054.81;;;12.55;31.94
70248;BME280;57641;51.416;5.506;2023-04-20T03:14:13;102051.31;;;12.64;32.28
70248;BME280;57641;51.416;5.506;2023-04-20T03:16:39;102045.84;;;12.65;32.39
70248;BME280;57641;51.416;5.506;2023-04-20T03:19:05;102043.03;;;12.67;32.21
70248;BME280;57641;51.416;5.506;2023-04-20T03:21:31;102045.84;;;12.65;32.55
70248;BME280;57641;51.416;5.506;2023-04-20T03:23:58;102042.31;;;12.65;32.71
70248;BME280;57641;51.416;5.506;2023-04-20T03:26:23;102045.84;;;12.65;32.34
70248;BME280;57641;51.416;5.506;2023-04-20T03:28:50;102043.72;;;12.69;33.04
70248;BME280;57641;51.416;5.506;2023-04-20T03:31:15;102044.97;;;12.65;32.71
70248;BME280;57641;51.416;5.506;2023-04-20T03:33:41;102039.78;;;12.63;33.76
70248;BME280;57641;51.416;5.506;2023-04-20T03:36:07;102037.13;;;12.63;33.24
70248;BME280;57641;51.416;5.506;2023-04-20T03:38:34;102034.81;;;12.59;34.11
70248;BME280;57641;51.416;5.506;2023-04-20T03:41:00;102030.63;;;12.56;34.04
70248;BME280;57641;51.416;5.506;2023-04-20T03:43:26;102029.91;;;12.64;33.90
70248;BME280;57641;51.416;5.506;2023-04-20T03:45:51;102021.31;;;12.60;34.28
70248;BME280;57641;51.416;5.506;2023-04-20T03:48:18;102026.25;;;12.65;34.32
70248;BME280;57641;51.416;5.506;2023-04-20T03:50:43;102017.97;;;12.68;34.42
70248;BME280;57641;51.416;5.506;2023-04-20T03:53:08;102024.53;;;12.54;34.89
70248;BME280;57641;51.416;5.506;2023-04-20T03:55:34;102025.72;;;12.71;35.04
70248;BME280;57641;51.416;5.506;2023-04-20T03:58:00;102015.41;;;12.66;35.00
70248;BME280;57641;51.416;5.506;2023-04-20T04:00:25;102009.78;;;12.60;35.61
70248;BME280;57641;51.416;5.506;2023-04-20T04:02:51;102016.28;;;12.77;35.12
70248;BME280;57641;51.416;5.506;2023-04-20T04:05:16;102018.41;;;12.73;35.45
70248;BME280;57641;51.416;5.506;2023-04-20T04:07:42;102011.59;;;12.69;35.53
70248;BME280;57641;51.416;5.506;2023-04-20T04:10:13;102011.78;;;12.67;35.83
70248;BME280;57641;51.416;5.506;2023-04-20T04:12:40;102009.66;;;12.71;35.64
70248;BME280;57641;51.416;5.506;2023-04-20T04:15:06;102003.75;;;12.77;35.53
70248;BME280;57641;51.416;5.506;2023-04-20T04:17:32;102001.19;;;12.76;35.79
70248;BME280;57641;51.416;5.506;2023-04-20T04:19:58;102001.78;;;12.79;36.49
70248;BME280;57641;51.416;5.506;2023-04-20T04:22:26;101995.47;;;12.90;36.59
70248;BME280;57641;51.416;5.506;2023-04-20T04:24:52;101998.81;;;12.82;36.12
70248;BME280;57641;51.416;5.506;2023-04-20T04:27:19;101995.03;;;12.85;36.85
70248;BME280;57641;51.416;5.506;2023-04-20T04:29:47;101986.16;;;12.94;36.27
70248;BME280;57641;51.416;5.506;2023-04-20T04:32:18;101979.66;;;12.87;36.67
70248;BME280;57641;51.416;5.506;2023-04-20T04:34:44;101973.88;;;12.72;36.98
70248;BME280;57641;51.416;5.506;2023-04-20T04:37:10;101972.78;;;12.84;36.84
70248;BME280;57641;51.416;5.506;2023-04-20T04:39:37;101962.75;;;12.86;37.13
70248;BME280;57641;51.416;5.506;2023-04-20T04:42:03;101975.44;;;12.94;37.18
70248;BME280;57641;51.416;5.506;2023-04-20T04:44:30;101973.75;;;12.93;37.73
70248;BME280;57641;51.416;5.506;2023-04-20T04:46:56;101971.19;;;13.01;37.70
70248;BME280;57641;51.416;5.506;2023-04-20T04:49:26;101975.00;;;13.08;37.61
70248;BME280;57641;51.416;5.506;2023-04-20T04:51:53;101969.66;;;13.08;38.00
70248;BME280;57641;51.416;5.506;2023-04-20T04:54:19;101967.00;;;13.18;37.53
70248;BME280;57641;51.416;5.506;2023-04-20T04:56:47;101975.59;;;13.21;38.00
70248;BME280;57641;51.416;5.506;2023-04-20T04:59:13;101979.13;;;13.12;38.32
70248;BME280;57641;51.416;5.506;2023-04-20T05:01:42;101976.31;;;13.14;39.62
70248;BME280;57641;51.416;5.506;2023-04-20T05:04:07;101969.81;;;13.26;39.77
70248;BME280;57641;51.416;5.506;2023-04-20T05:06:33;101966.56;;;13.22;41.70
70248;BME280;57641;51.416;5.506;2023-04-20T05:08:58;101975.59;;;13.21;42.12
70248;BME280;57641;51.416;5.506;2023-04-20T05:11:24;101964.91;;;13.21;42.88
70248;BME280;57641;51.416;5.506;2023-04-20T05:13:49;101965.44;;;13.25;42.10
70248;BME280;57641;51.416;5.506;2023-04-20T05:16:24;101972.22;;;13.19;42.67
70248;BME280;57641;51.416;5.506;2023-04-20T05:18:53;101971.50;;;13.17;43.71
70248;BME280;57641;51.416;5.506;2023-04-20T05:21:19;101961.09;;;13.14;44.04
70248;BME280;57641;51.416;5.506;2023-04-20T05:23:48;101969.53;;;13.19;43.01
70248;BME280;57641;51.416;5.506;2023-04-20T05:26:13;101974.59;;;13.13;43.82
70248;BME280;57641;51.416;5.506;2023-04-20T05:28:39;101972.19;;;13.09;43.77
70248;BME280;57641;51.416;5.506;2023-04-20T05:31:05;101975.59;;;13.11;43.84
70248;BME280;57641;51.416;5.506;2023-04-20T05:33:35;101970.22;;;13.11;43.74
70248;BME280;57641;51.416;5.506;2023-04-20T05:36:01;101962.91;;;13.14;43.53
70248;BME280;57641;51.416;5.506;2023-04-20T05:38:26;101960.50;;;13.01;44.14
70248;BME280;57641;51.416;5.506;2023-04-20T05:40:52;101964.88;;;13.11;43.10
70248;BME280;57641;51.416;5.506;2023-04-20T05:43:21;101965.59;;;13.14;43.03
70248;BME280;57641;51.416;5.506;2023-04-20T05:45:47;101954.44;;;13.08;43.47
70248;BME280;57641;51.416;5.506;2023-04-20T05:48:13;101959.53;;;13.11;43.85
70248;BME280;57641;51.416;5.506;2023-04-20T05:50:39;101951.34;;;13.23;41.64
70248;BME280;57641;51.416;5.506;2023-04-20T05:53:05;101951.50;;;13.21;42.15
70248;BME280;57641;51.416;5.506;2023-04-20T05:55:31;101954.19;;;13.21;42.42
70248;BME280;57641;51.416;5.506;2023-04-20T05:57:58;101955.44;;;13.27;42.00
70248;BME280;57641;51.416;5.506;2023-04-20T06:00:24;101957.41;;;13.25;42.07
70248;BME280;57641;51.416;5.506;2023-04-20T06:05:18;101948.38;;;13.26;42.05
70248;BME280;57641;51.416;5.506;2023-04-20T06:07:44;101950.19;;;13.35;41.99
70248;BME280;57641;51.416;5.506;2023-04-20T06:10:10;101953.84;;;13.34;42.42
70248;BME280;57641;51.416;5.506;2023-04-20T06:12:35;101954.25;;;13.48;41.77
70248;BME280;57641;51.416;5.506;2023-04-20T06:15:01;101952.28;;;13.50;41.13
70248;BME280;57641;51.416;5.506;2023-04-20T06:17:29;101942.41;;;13.51;40.95
70248;BME280;57641;51.416;5.506;2023-04-20T06:19:54;101936.63;;;13.46;41.59
70248;BME280;57641;51.416;5.506;2023-04-20T06:22:20;101938.16;;;13.48;41.22
70248;BME280;57641;51.416;5.506;2023-04-20T06:24:45;101940.56;;;13.51;41.02
70248;BME280;57641;51.416;5.506;2023-04-20T06:27:11;101941.91;;;13.19;41.36
70248;BME280;57641;51.416;5.506;2023-04-20T06:29:37;101937.22;;;13.40;41.56
70248;BME280;57641;51.416;5.506;2023-04-20T06:32:03;101943.13;;;13.43;40.86
70248;BME280;57641;51.416;5.506;2023-04-20T06:34:29;101940.44;;;13.43;41.11
70248;BME280;57641;51.416;5.506;2023-04-20T06:36:54;101932.00;;;13.38;41.65
70248;BME280;57641;51.416;5.506;2023-04-20T06:39:20;101936.38;;;13.39;41.61
70248;BME280;57641;51.416;5.506;2023-04-20T06:41:46;101932.25;;;13.45;41.44
70248;BME280;57641;51.416;5.506;2023-04-20T06:44:11;101930.16;;;13.39;41.48
70248;BME280;57641;51.416;5.506;2023-04-20T06:46:37;101919.81;;;13.53;41.75
70248;BME280;57641;51.416;5.506;2023-04-20T06:49:02;101917.84;;;13.56;41.05
70248;BME280;57641;51.416;5.506;2023-04-20T06:51:28;101918.69;;;13.56;41.87
70248;BME280;57641;51.416;5.506;2023-04-20T06:53:55;101914.88;;;13.59;41.67
70248;BME280;57641;51.416;5.506;2023-04-20T06:56:22;101923.06;;;13.57;41.73
70248;BME280;57641;51.416;5.506;2023-04-20T06:58:47;101919.81;;;13.63;41.24
70248;BME280;57641;51.416;5.506;2023-04-20T07:01:13;101923.06;;;13.57;40.90
70248;BME280;57641;51.416;5.506;2023-04-20T07:03:38;101922.31;;;13.65;41.28
70248;BME280;57641;51.416;5.506;2023-04-20T07:06:05;101924.59;;;13.60;41.68
70248;BME280;57641;51.416;5.506;2023-04-20T07:08:32;101923.75;;;13.59;42.02
70248;BME280;57641;51.416;5.506;2023-04-20T07:10:57;101919.97;;;13.52;42.07
70248;BME280;57641;51.416;5.506;2023-04-20T07:13:23;101924.31;;;13.63;41.50
70248;BME280;57641;51.416;5.506;2023-04-20T07:15:52;101924.31;;;13.63;42.22
70248;BME280;57641;51.416;5.506;2023-04-20T07:18:17;101919.22;;;13.69;42.15
70248;BME280;57641;51.416;5.506;2023-04-20T07:20:42;101918.88;;;13.82;41.23
70248;BME280;57641;51.416;5.506;2023-04-20T07:23:08;101917.94;;;13.73;41.93
70248;BME280;57641;51.416;5.506;2023-04-20T07:25:33;101912.50;;;13.83;41.66
70248;BME280;57641;51.416;5.506;2023-04-20T07:27:59;101910.94;;;13.90;40.94
70248;BME280;57641;51.416;5.506;2023-04-20T07:30:25;101914.03;;;13.85;41.40
70248;BME280;57641;51.416;5.506;2023-04-20T07:32:50;101921.16;;;13.77;41.56
70248;BME280;57641;51.416;5.506;2023-04-20T07:35:16;101922.44;;;13.73;42.25
70248;BME280;57641;51.416;5.506;2023-04-20T07:37:42;101921.00;;;13.78;41.68
70248;BME280;57641;51.416;5.506;2023-04-20T07:40:08;101927.22;;;13.79;41.75
70248;BME280;57641;51.416;5.506;2023-04-20T07:42:34;101921.06;;;13.59;41.85
70248;BME280;57641;51.416;5.506;2023-04-20T07:45:02;101926.69;;;13.66;42.04
70248;BME280;57641;51.416;5.506;2023-04-20T07:47:28;101917.63;;;13.76;41.19
70248;BME280;57641;51.416;5.506;2023-04-20T07:49:54;101919.63;;;13.65;42.07
70248;BME280;57641;51.416;5.506;2023-04-20T07:52:20;101911.63;;;13.92;41.29
70248;BME280;57641;51.416;5.506;2023-04-20T07:54:45;101912.06;;;13.87;40.80
70248;BME280;57641;51.416;5.506;2023-04-20T07:57:11;101913.75;;;13.88;41.74
70248;BME280;57641;51.416;5.506;2023-04-20T07:59:37;101916.31;;;14.08;41.30
70248;BME280;57641;51.416;5.506;2023-04-20T08:02:04;101913.75;;;13.88;42.04
70248;BME280;57641;51.416;5.506;2023-04-20T08:04:30;101915.69;;;13.96;41.02
70248;BME280;57641;51.416;5.506;2023-04-20T08:06:55;101903.97;;;13.97;41.91
70248;BME280;57641;51.416;5.506;2023-04-20T08:09:21;101897.47;;;14.00;42.02
70248;BME280;57641;51.416;5.506;2023-04-20T08:11:46;101895.66;;;14.18;41.98
70248;BME280;57641;51.416;5.506;2023-04-20T08:14:15;101903.09;;;14.24;41.50
70248;BME280;57641;51.416;5.506;2023-04-20T08:16:41;101896.75;;;14.25;41.40
70248;BME280;57641;51.416;5.506;2023-04-20T08:19:06;101897.97;;;14.30;41.39
70248;BME280;57641;51.416;5.506;2023-04-20T08:21:36;101898.69;;;14.32;40.67
70248;BME280;57641;51.416;5.506;2023-04-20T08:24:02;101890.50;;;14.52;41.19
70248;BME280;57641;51.416;5.506;2023-04-20T08:26:28;101894.00;;;14.70;40.31
70248;BME280;57641;51.416;5.506;2023-04-20T08:28:53;101885.34;;;14.76;39.88
70248;BME280;57641;51.416;5.506;2023-04-20T08:31:19;101895.19;;;14.85;40.14
70248;BME280;57641;51.416;5.506;2023-04-20T08:33:45;101898.59;;;14.95;40.08
70248;BME280;57641;51.416;5.506;2023-04-20T08:36:10;101895.22;;;14.93;39.51
70248;BME280;57641;51.416;5.506;2023-04-20T08:38:36;101885.91;;;14.79;39.99
70248;BME280;57641;51.416;5.506;2023-04-20T08:41:02;101889.63;;;14.87;39.68
70248;BME280;57641;51.416;5.506;2023-04-20T08:43:28;101878.97;;;14.95;39.52
70248;BME280;57641;51.416;5.506;2023-04-20T08:45:57;101874.75;;;14.92;39.96
70248;BME280;57641;51.416;5.506;2023-04-20T08:48:24;101877.41;;;14.92;39.76
70248;BME280;57641;51.416;5.506;2023-04-20T08:50:52;101874.91;;;14.91;40.52
70248;BME280;57641;51.416;5.506;2023-04-20T08:53:18;101869.91;;;14.96;39.49
70248;BME280;57641;51.416;5.506;2023-04-20T08:55:44;101878.53;;;15.07;40.42
70248;BME280;57641;51.416;5.506;2023-04-20T08:58:09;101867.38;;;14.94;40.34
70248;BME280;57641;51.416;5.506;2023-04-20T09:00:44;101873.75;;;14.93;40.11
70248;BME280;57641;51.416;5.506;2023-04-20T09:03:10;101866.06;;;14.98;40.87
70248;BME280;57641;51.416;5.506;2023-04-20T09:05:35;101871.16;;;14.84;40.75
70248;BME280;57641;51.416;5.506;2023-04-20T09:08:04;101869.22;;;14.94;40.33
70248;BME280;57641;51.416;5.506;2023-04-20T09:10:42;101869.00;;;14.87;40.48
70248;BME280;57641;51.416;5.506;2023-04-20T09:13:19;101869.22;;;14.94;40.26
70248;BME280;57641;51.416;5.506;2023-04-20T09:15:45;101870.75;;;14.96;40.08
70248;BME280;57641;51.416;5.506;2023-04-20T09:18:12;101868.22;;;14.95;40.20
70248;BME280;57641;51.416;5.506;2023-04-20T09:20:39;101865.31;;;14.88;39.99
70248;BME280;57641;51.416;5.506;2023-04-20T09:23:18;101867.78;;;15.07;39.45
70248;BME280;57641;51.416;5.506;2023-04-20T09:25:49;101856.19;;;15.07;39.86
70248;BME280;57641;51.416;5.506;2023-04-20T09:28:16;101862.31;;;14.91;40.16
70248;BME280;57641;51.416;5.506;2023-04-20T09:30:44;101861.31;;;14.92;38.92
70248;BME280;57641;51.416;5.506;2023-04-20T09:33:11;101862.06;;;15.02;39.06
70248;BME280;57641;51.416;5.506;2023-04-20T09:35:43;101855.66;;;14.77;38.83
70248;BME280;57641;51.416;5.506;2023-04-20T09:38:11;101847.22;;;14.90;39.61
70248;BME280;57641;51.416;5.506;2023-04-20T09:40:39;101848.59;;;14.94;39.44
70248;BME280;57641;51.416;5.506;2023-04-20T09:43:12;101851.69;;;15.33;38.93
70248;BME280;57641;51.416;5.506;2023-04-20T09:45:38;101850.22;;;15.47;38.05
70248;BME280;57641;51.416;5.506;2023-04-20T09:48:07;101846.81;;;15.62;39.18
70248;BME280;57641;51.416;5.506;2023-04-20T09:50:37;101838.66;;;15.80;37.21
70248;BME280;57641;51.416;5.506;2023-04-20T09:53:04;101835.00;;;15.55;36.65
70248;BME280;57641;51.416;5.506;2023-04-20T09:55:30;101827.50;;;15.67;36.74
70248;BME280;57641;51.416;5.506;2023-04-20T09:57:56;101826.66;;;15.67;36.87
70248;BME280;57641;51.416;5.506;2023-04-20T10:00:23;101821.78;;;15.62;35.98
70248;BME280;57641;51.416;5.506;2023-04-20T10:02:48;101819.09;;;15.62;36.90
70248;BME280;57641;51.416;5.506;2023-04-20T10:05:14;101820.50;;;15.82;36.86
70248;BME280;57641;51.416;5.506;2023-04-20T10:07:41;101814.91;;;15.68;37.29
70248;BME280;57641;51.416;5.506;2023-04-20T10:10:12;101811.13;;;15.94;36.60
70248;BME280;57641;51.416;5.506;2023-04-20T10:12:52;101812.25;;;15.84;36.65
70248;BME280;57641;51.416;5.506;2023-04-20T10:15:18;101808.78;;;15.99;36.48
70248;BME280;57641;51.416;5.506;2023-04-20T10:17:46;101810.22;;;15.70;37.42
70248;BME280;57641;51.416;5.506;2023-04-20T10:20:28;101801.91;;;15.55;37.06
70248;BME280;57641;51.416;5.506;2023-04-20T10:23:06;101806.84;;;15.68;37.43
70248;BME280;57641;51.416;5.506;2023-04-20T10:25:32;101806.84;;;15.68;37.04
70248;BME280;57641;51.416;5.506;2023-04-20T10:27:59;101811.22;;;15.69;36.07
70248;BME280;57641;51.416;5.506;2023-04-20T10:30:27;101803.47;;;15.66;36.73
70248;BME280;57641;51.416;5.506;2023-04-20T10:33:04;101807.13;;;15.56;37.39
70248;BME280;57641;51.416;5.506;2023-04-20T10:35:40;101806.97;;;15.58;37.94
70248;BME280;57641;51.416;5.506;2023-04-20T10:38:06;101798.94;;;15.66;37.62
70248;BME280;57641;51.416;5.506;2023-04-20T10:40:32;101796.78;;;15.78;36.94
70248;BME280;57641;51.416;5.506;2023-04-20T10:42:58;101792.59;;;15.41;37.59
70248;BME280;57641;51.416;5.506;2023-04-20T10:45:36;101793.69;;;15.56;37.82
70248;BME280;57641;51.416;5.506;2023-04-20T10:48:09;101792.47;;;15.51;38.10
70248;BME280;57641;51.416;5.506;2023-04-20T10:50:35;101795.72;;;15.29;38.32
70248;BME280;57641;51.416;5.506;2023-04-20T10:53:01;101800.25;;;15.54;38.12
70248;BME280;57641;51.416;5.506;2023-04-20T10:55:27;101802.69;;;15.47;37.74
70248;BME280;57641;51.416;5.506;2023-04-20T10:57:53;101804.13;;;15.59;38.21
70248;BME280;57641;51.416;5.506;2023-04-20T11:00:26;101791.41;;;15.36;38.88
70248;BME280;57641;51.416;5.506;2023-04-20T11:02:56;101795.94;;;15.35;39.42
70248;BME280;57641;51.416;5.506;2023-04-20T11:05:24;101791.03;;;15.65;38.71
70248;BME280;57641;51.416;5.506;2023-04-20T11:10:18;101790.69;;;15.59;38.46
70248;BME280;57641;51.416;5.506;2023-04-20T11:12:44;101780.44;;;15.63;39.10
70248;BME280;57641;51.416;5.506;2023-04-20T11:15:10;101778.09;;;15.68;39.03
70248;BME280;57641;51.416;5.506;2023-04-20T11:17:36;101777.47;;;15.82;38.78
70248;BME280;57641;51.416;5.506;2023-04-20T11:20:06;101777.47;;;15.74;38.78
70248;BME280;57641;51.416;5.506;2023-04-20T11:22:37;101778.66;;;15.88;38.10
70248;BME280;57641;51.416;5.506;2023-04-20T11:25:04;101771.09;;;15.83;38.19
70248;BME280;57641;51.416;5.506;2023-04-20T11:27:31;101776.63;;;15.74;38.92
70248;BME280;57641;51.416;5.506;2023-04-20T11:29:57;101766.84;;;15.65;38.44
70248;BME280;57641;51.416;5.506;2023-04-20T11:32:25;101765.31;;;15.62;38.70
70248;BME280;57641;51.416;5.506;2023-04-20T11:34:59;101758.78;;;15.65;39.09
70248;BME280;57641;51.416;5.506;2023-04-20T11:37:25;101762.25;;;15.49;39.20
70248;BME280;57641;51.416;5.506;2023-04-20T11:40:05;101770.97;;;15.51;38.92
70248;BME280;57641;51.416;5.506;2023-04-20T11:42:32;101755.41;;;15.54;38.98
70248;BME280;57641;51.416;5.506;2023-04-20T11:44:58;101768.53;;;15.32;40.92
70248;BME280;57641;51.416;5.506;2023-04-20T11:47:24;101762.53;;;15.38;41.96
70248;BME280;57641;51.416;5.506;2023-04-20T11:49:49;101759.94;;;15.54;42.06
70248;BME280;57641;51.416;5.506;2023-04-20T11:52:15;101744.31;;;15.57;43.54
70248;BME280;57641;51.416;5.506;2023-04-20T11:54:41;101748.69;;;15.58;42.78
70248;BME280;57641;51.416;5.506;2023-04-20T11:57:07;101750.22;;;15.77;42.15
70248;BME280;57641;51.416;5.506;2023-04-20T11:59:32;101752.38;;;15.66;40.92
70248;BME280;57641;51.416;5.506;2023-04-20T12:01:58;101760.09;;;15.60;42.34
70248;BME280;57641;51.416;5.506;2023-04-20T12:04:31;101776.28;;;15.35;44.42
70248;BME280;57641;51.416;5.506;2023-04-20T12:06:59;101784.97;;;15.29;45.38
70248;BME280;57641;51.416;5.506;2023-04-20T12:09:26;101773.00;;;15.15;45.89
70248;BME280;57641;51.416;5.506;2023-04-20T12:11:52;101771.44;;;14.78;48.26
70248;BME280;57641;51.416;5.506;2023-04-20T12:14:18;101769.88;;;14.68;49.35
70248;BME280;57641;51.416;5.506;2023-04-20T12:16:43;101761.38;;;14.80;49.06
70248;BME280;57641;51.416;5.506;2023-04-20T12:19:09;101761.94;;;14.84;49.40
70248;BME280;57641;51.416;5.506;2023-04-20T12:21:35;101747.81;;;15.16;50.63
70248;BME280;57641;51.416;5.506;2023-04-20T12:24:00;101742.38;;;15.42;49.64
70248;BME280;57641;51.416;5.506;2023-04-20T12:26:26;101743.19;;;15.34;47.34
70248;BME280;57641;51.416;5.506;2023-04-20T12:28:52;101741.34;;;15.35;46.12
70248;BME280;57641;51.416;5.506;2023-04-20T12:31:18;101741.88;;;15.38;47.97
70248;BME280;57641;51.416;5.506;2023-04-20T12:33:43;101745.16;;;15.66;48.42
70248;BME280;57641;51.416;5.506;2023-04-20T12:36:09;101734.75;;;15.71;47.50
70248;BME280;57641;51.416;5.506;2023-04-20T12:38:35;101731.44;;;15.93;46.82
70248;BME280;57641;51.416;5.506;2023-04-20T12:41:01;101736.13;;;16.08;45.89
70248;BME280;57641;51.416;5.506;2023-04-20T12:43:29;101727.06;;;16.25;44.20
70248;BME280;57641;51.416;5.506;2023-04-20T12:45:55;101729.25;;;16.29;45.01
70248;BME280;57641;51.416;5.506;2023-04-20T12:48:21;101720.66;;;16.42;45.00
70248;BME280;57641;51.416;5.506;2023-04-20T12:50:46;101715.25;;;16.66;44.62
70248;BME280;57641;51.416;5.506;2023-04-20T12:53:12;101723.34;;;16.42;41.95
70248;BME280;57641;51.416;5.506;2023-04-20T12:55:37;101721.00;;;16.47;41.22